Terminal Aerodrome Forecast
Issued by NWS Tulsa, OK

Current Version | Previous Version | Text Only | Print | Product List | Glossary On
Versions: 1 2 3 4 5 6 7 8 9 10 11 12 13
455
FTUS44 KTSA 271747
TAFTUL
TAF
KTUL 271747Z 2718/2818 17013G21KT P6SM SCT015 OVC025
     FM280200 17012KT 4SM BR SCT025 BKN250
     FM281500 20014G20KT P6SM BKN020=

USA.gov is the U.S. government's official web portal to all federal, state and local government web resources and services.